Terminal Aerodrome Forecast
Issued by NWS

Home | Current Version | Previous Version | Text Only | Print | Product List | Glossary On
Versions: 1 2 3 4 5 6 7 8 9 10 11 12 13 14 15 16 17 18 19
000
FTUS43 KDLH 241420 AAC
TAFHYR
TAF AMD
KHYR 241420Z 2414/2512 VRB03KT P6SM -SHRA SCT006 OVC015
      TEMPO 2414/2416 BKN006 OVC015
     FM241600 23006KT P6SM VCSH BKN015
     FM242000 26007KT P6SM SCT016 BKN050
     FM250100 25004KT P6SM SCT070=

USA.gov is the U.S. government's official web portal to all federal, state and local government web resources and services.